Ellabell, Georgia
Current Conditions -  °F | °C
As of 2:58 AM on Sunday 26 Oct 2014 (Local Time) from KLHW Reporting Station
Clear Clear  
Wind Chill: 49°   Ceiling: Unl
Heat Index: 49°   Visibility: 10mi
Dew Point: 47°   Wind: 0mph
Humidity: 91%   Direction: NA
Pressure: 29.95"   Gusts: NA
Location:  32.12°N, 81.49°W
Report Text: KLHW 260658Z AUTO 00000KT 10SM CLR 10/08 A2995 RMK AO2 SLP145 T00960082
Loading
Personal Weather Stations






























Interactive Weather Map
Tropical Storm Tracking
New forecast layout! Learn more

10-Day Weather Forecast

Advertisements
Track Severe Weather on mobile